Sylvan Grove, KS (67481)

7:12 AM CDT on September 01, 2015 (GMT -0500)
Rural Lincoln County | | Change Station
CLOSE
Current Station
Personal Weather Station
Location: Lincoln, KS
Elevation: 1631 ft
Nearby Weather Stations

Elev 1631 ft 38.94 °N, 98.27 °W | Updated 11 seconds ago

Clear
Clear
76.8 °F
Feels Like 79 °F
N
16.8
Wind Variable Wind from SSW
Gusts 19.9 mph

Today
High -- | Low -- °F
--% Chance of Precip.
Yesterday
High -- | Low -- °F
Precip. -- in
7:02 AM 8:04 PM
Waning Gibbous, 89% visible
Pressure 29.88 in
Visibility 10.0 miles
Clouds Clear
Heat Index 79 °F
Dew Point 63 °F
Humidity 63%
Rainfall 0.00 in
Snow Depth Not available.
UV 0.0 out of 12
Pollen 11.20 out of 12
Air Quality Not available.
Flu Activity Not available.
METAR KRSL 011153Z AUTO 19013KT 10SM CLR 24/16 A2994 RMK AO2 SLP117 T02390161 10244 20233 55000
Pressure 29.88 in
Visibility 10.0 miles
Clouds Clear
Heat Index 79 °F
Dew Point 63 °F
Humidity 63%
Rainfall 0.00 in
Snow Depth Not available.
UV 0.0 out of 12
Pollen 11.20 out of 12
Air Quality Not available.
Flu Activity Not available.
METAR KRSL 011153Z AUTO 19013KT 10SM CLR 24/16 A2994 RMK AO2 SLP117 T02390161 10244 20233 55000

10-Day Weather Forecast

×

Almanac

Astronomy

Sep. 01, 2015 Rise Set
Actual Time
Civil Twilight
Nautical Twilight
Astronomical Twilight
Moon
Length of Visible Light
Length of Day
Tomorrow will be .
, % of the Moon is Illuminated

Today's Extremes

State Highs State Lows

Community

WunderPhotos

Upload Photos

1,851,508 photos uploaded!

WunderBlogs® & News

Nearby

Air Quality

  Air Quality AQ Index Pollutant
Not available.

Snow Depth

Station Depth Elevation

Earthquake Activity

City Distance Mag. Time & Date
Minimum magnitude displayed is 2.5.

Coastal Water Temperatures

Place Temperature

Stations

Nearby Weather Stations

Station Location Temp. Windchill Dew Point Humidity Wind Precip. Elev Updated Type